sensor_id;sensor_type;location;lat;lon;timestamp;P1;durP1;ratioP1;P2;durP2;ratioP2
30743;SDS011;17486;46.738;7.622;2023-05-07T00:01:37;3.25;;;2.95;;
30743;SDS011;17486;46.738;7.622;2023-05-07T00:04:03;5.10;;;2.75;;
30743;SDS011;17486;46.738;7.622;2023-05-07T00:06:28;5.85;;;2.05;;
30743;SDS011;17486;46.738;7.622;2023-05-07T00:08:55;3.72;;;2.10;;
30743;SDS011;17486;46.738;7.622;2023-05-07T00:11:21;3.70;;;1.88;;
30743;SDS011;17486;46.738;7.622;2023-05-07T00:13:47;3.78;;;2.22;;
30743;SDS011;17486;46.738;7.622;2023-05-07T00:16:13;2.50;;;1.90;;
30743;SDS011;17486;46.738;7.622;2023-05-07T00:18:38;2.30;;;2.10;;
30743;SDS011;17486;46.738;7.622;2023-05-07T00:21:04;1.95;;;1.70;;
30743;SDS011;17486;46.738;7.622;2023-05-07T00:23:29;2.55;;;1.80;;
30743;SDS011;17486;46.738;7.622;2023-05-07T00:25:54;2.45;;;1.90;;
30743;SDS011;17486;46.738;7.622;2023-05-07T00:28:21;9.00;;;3.00;;
30743;SDS011;17486;46.738;7.622;2023-05-07T00:30:46;3.38;;;1.80;;
30743;SDS011;17486;46.738;7.622;2023-05-07T00:33:12;1.85;;;1.67;;
30743;SDS011;17486;46.738;7.622;2023-05-07T00:35:37;3.80;;;2.00;;
30743;SDS011;17486;46.738;7.622;2023-05-07T00:38:03;2.22;;;2.03;;
30743;SDS011;17486;46.738;7.622;2023-05-07T00:40:28;3.58;;;2.50;;
30743;SDS011;17486;46.738;7.622;2023-05-07T00:42:53;3.58;;;2.95;;
30743;SDS011;17486;46.738;7.622;2023-05-07T00:45:21;4.93;;;2.70;;
30743;SDS011;17486;46.738;7.622;2023-05-07T00:47:48;4.38;;;2.63;;
30743;SDS011;17486;46.738;7.622;2023-05-07T00:50:13;3.28;;;2.42;;
30743;SDS011;17486;46.738;7.622;2023-05-07T00:52:39;3.72;;;2.70;;
30743;SDS011;17486;46.738;7.622;2023-05-07T00:55:05;3.53;;;2.72;;
30743;SDS011;17486;46.738;7.622;2023-05-07T00:57:37;3.22;;;2.20;;
30743;SDS011;17486;46.738;7.622;2023-05-07T01:00:05;3.08;;;2.20;;
30743;SDS011;17486;46.738;7.622;2023-05-07T01:02:33;2.90;;;2.60;;
30743;SDS011;17486;46.738;7.622;2023-05-07T01:04:59;3.08;;;2.40;;
30743;SDS011;17486;46.738;7.622;2023-05-07T01:07:25;4.07;;;2.65;;
30743;SDS011;17486;46.738;7.622;2023-05-07T01:09:52;4.25;;;2.50;;
30743;SDS011;17486;46.738;7.622;2023-05-07T01:12:18;4.25;;;2.40;;
30743;SDS011;17486;46.738;7.622;2023-05-07T01:14:44;4.63;;;2.63;;
30743;SDS011;17486;46.738;7.622;2023-05-07T01:17:09;4.95;;;2.58;;
30743;SDS011;17486;46.738;7.622;2023-05-07T01:19:35;3.88;;;2.42;;
30743;SDS011;17486;46.738;7.622;2023-05-07T01:22:02;2.25;;;2.05;;
30743;SDS011;17486;46.738;7.622;2023-05-07T01:24:29;2.65;;;2.30;;
30743;SDS011;17486;46.738;7.622;2023-05-07T01:26:56;4.05;;;2.22;;
30743;SDS011;17486;46.738;7.622;2023-05-07T01:29:21;2.72;;;2.17;;
30743;SDS011;17486;46.738;7.622;2023-05-07T01:31:47;3.50;;;2.05;;
30743;SDS011;17486;46.738;7.622;2023-05-07T01:34:13;1.90;;;1.80;;
30743;SDS011;17486;46.738;7.622;2023-05-07T01:36:42;2.35;;;1.88;;
30743;SDS011;17486;46.738;7.622;2023-05-07T01:39:08;5.05;;;2.78;;
30743;SDS011;17486;46.738;7.622;2023-05-07T01:41:34;4.32;;;3.10;;
30743;SDS011;17486;46.738;7.622;2023-05-07T01:44:00;3.10;;;2.90;;
30743;SDS011;17486;46.738;7.622;2023-05-07T01:46:27;3.30;;;3.00;;
30743;SDS011;17486;46.738;7.622;2023-05-07T01:48:54;4.13;;;3.28;;
30743;SDS011;17486;46.738;7.622;2023-05-07T01:51:20;3.72;;;3.13;;
30743;SDS011;17486;46.738;7.622;2023-05-07T01:53:47;3.58;;;2.95;;
30743;SDS011;17486;46.738;7.622;2023-05-07T01:56:15;3.40;;;3.10;;
30743;SDS011;17486;46.738;7.622;2023-05-07T01:58:42;4.97;;;3.53;;
30743;SDS011;17486;46.738;7.622;2023-05-07T02:01:07;4.60;;;3.05;;
30743;SDS011;17486;46.738;7.622;2023-05-07T02:03:32;3.58;;;2.80;;
30743;SDS011;17486;46.738;7.622;2023-05-07T02:05:58;3.25;;;2.95;;
30743;SDS011;17486;46.738;7.622;2023-05-07T02:08:23;5.60;;;3.13;;
30743;SDS011;17486;46.738;7.622;2023-05-07T02:10:48;3.67;;;2.92;;
30743;SDS011;17486;46.738;7.622;2023-05-07T02:13:15;2.88;;;2.50;;
30743;SDS011;17486;46.738;7.622;2023-05-07T02:15:40;6.35;;;3.17;;
30743;SDS011;17486;46.738;7.622;2023-05-07T02:18:06;4.38;;;3.17;;
30743;SDS011;17486;46.738;7.622;2023-05-07T02:20:32;2.90;;;2.60;;
30743;SDS011;17486;46.738;7.622;2023-05-07T02:22:58;5.78;;;2.90;;
30743;SDS011;17486;46.738;7.622;2023-05-07T02:25:23;5.15;;;3.20;;
30743;SDS011;17486;46.738;7.622;2023-05-07T02:27:49;9.88;;;3.28;;
30743;SDS011;17486;46.738;7.622;2023-05-07T02:30:14;3.50;;;2.60;;
30743;SDS011;17486;46.738;7.622;2023-05-07T02:32:40;3.67;;;2.88;;
30743;SDS011;17486;46.738;7.622;2023-05-07T02:35:05;3.05;;;2.58;;
30743;SDS011;17486;46.738;7.622;2023-05-07T02:37:31;3.45;;;3.10;;
30743;SDS011;17486;46.738;7.622;2023-05-07T02:39:56;6.25;;;3.08;;
30743;SDS011;17486;46.738;7.622;2023-05-07T02:42:22;5.47;;;3.17;;
30743;SDS011;17486;46.738;7.622;2023-05-07T02:44:47;5.10;;;3.08;;
30743;SDS011;17486;46.738;7.622;2023-05-07T02:47:13;3.83;;;2.90;;
30743;SDS011;17486;46.738;7.622;2023-05-07T02:49:40;3.40;;;3.10;;
30743;SDS011;17486;46.738;7.622;2023-05-07T02:52:05;4.15;;;3.05;;
30743;SDS011;17486;46.738;7.622;2023-05-07T02:54:31;3.40;;;2.83;;
30743;SDS011;17486;46.738;7.622;2023-05-07T02:56:56;5.30;;;2.90;;
30743;SDS011;17486;46.738;7.622;2023-05-07T02:59:22;4.65;;;2.80;;
30743;SDS011;17486;46.738;7.622;2023-05-07T03:01:48;6.13;;;3.28;;
30743;SDS011;17486;46.738;7.622;2023-05-07T03:04:14;5.07;;;2.90;;
30743;SDS011;17486;46.738;7.622;2023-05-07T03:06:39;5.07;;;2.75;;
30743;SDS011;17486;46.738;7.622;2023-05-07T03:09:05;2.13;;;1.90;;
30743;SDS011;17486;46.738;7.622;2023-05-07T03:11:30;5.20;;;2.33;;
30743;SDS011;17486;46.738;7.622;2023-05-07T03:13:55;3.55;;;2.20;;
30743;SDS011;17486;46.738;7.622;2023-05-07T03:16:21;3.28;;;2.13;;
30743;SDS011;17486;46.738;7.622;2023-05-07T03:18:46;5.97;;;2.63;;
30743;SDS011;17486;46.738;7.622;2023-05-07T03:21:11;2.95;;;2.10;;
30743;SDS011;17486;46.738;7.622;2023-05-07T03:23:37;3.63;;;2.05;;
30743;SDS011;17486;46.738;7.622;2023-05-07T03:26:02;3.60;;;2.08;;
30743;SDS011;17486;46.738;7.622;2023-05-07T03:28:28;4.43;;;2.65;;
30743;SDS011;17486;46.738;7.622;2023-05-07T03:30:53;2.20;;;2.00;;
30743;SDS011;17486;46.738;7.622;2023-05-07T03:33:18;3.53;;;1.88;;
30743;SDS011;17486;46.738;7.622;2023-05-07T03:35:44;2.65;;;2.30;;
30743;SDS011;17486;46.738;7.622;2023-05-07T03:38:09;2.60;;;2.40;;
30743;SDS011;17486;46.738;7.622;2023-05-07T03:40:35;3.60;;;2.08;;
30743;SDS011;17486;46.738;7.622;2023-05-07T03:43:00;5.05;;;2.53;;
30743;SDS011;17486;46.738;7.622;2023-05-07T03:45:26;3.95;;;2.30;;
30743;SDS011;17486;46.738;7.622;2023-05-07T03:47:51;5.68;;;2.55;;
30743;SDS011;17486;46.738;7.622;2023-05-07T03:50:16;6.18;;;2.47;;
30743;SDS011;17486;46.738;7.622;2023-05-07T03:52:42;3.42;;;2.47;;
30743;SDS011;17486;46.738;7.622;2023-05-07T03:55:07;2.28;;;2.05;;
30743;SDS011;17486;46.738;7.622;2023-05-07T03:57:33;3.38;;;2.20;;
30743;SDS011;17486;46.738;7.622;2023-05-07T03:59:58;4.95;;;2.10;;
30743;SDS011;17486;46.738;7.622;2023-05-07T04:02:24;2.35;;;2.00;;
30743;SDS011;17486;46.738;7.622;2023-05-07T04:04:49;3.40;;;2.00;;
30743;SDS011;17486;46.738;7.622;2023-05-07T04:07:15;2.60;;;2.35;;
30743;SDS011;17486;46.738;7.622;2023-05-07T04:09:40;2.88;;;2.58;;
30743;SDS011;17486;46.738;7.622;2023-05-07T04:12:05;4.75;;;2.65;;
30743;SDS011;17486;46.738;7.622;2023-05-07T04:14:31;4.28;;;2.83;;
30743;SDS011;17486;46.738;7.622;2023-05-07T04:16:57;5.70;;;2.75;;
30743;SDS011;17486;46.738;7.622;2023-05-07T04:19:24;3.00;;;2.70;;
30743;SDS011;17486;46.738;7.622;2023-05-07T04:21:49;3.75;;;2.95;;
30743;SDS011;17486;46.738;7.622;2023-05-07T04:24:15;3.33;;;2.92;;
30743;SDS011;17486;46.738;7.622;2023-05-07T04:26:40;2.88;;;2.63;;
30743;SDS011;17486;46.738;7.622;2023-05-07T04:29:06;4.28;;;2.70;;
30743;SDS011;17486;46.738;7.622;2023-05-07T04:31:31;3.15;;;2.78;;
30743;SDS011;17486;46.738;7.622;2023-05-07T04:33:57;3.58;;;2.80;;
30743;SDS011;17486;46.738;7.622;2023-05-07T04:36:22;4.53;;;2.83;;
30743;SDS011;17486;46.738;7.622;2023-05-07T04:38:48;3.13;;;2.78;;
30743;SDS011;17486;46.738;7.622;2023-05-07T04:41:13;6.43;;;3.20;;
30743;SDS011;17486;46.738;7.622;2023-05-07T04:43:39;4.70;;;3.15;;
30743;SDS011;17486;46.738;7.622;2023-05-07T04:46:05;4.97;;;2.75;;
30743;SDS011;17486;46.738;7.622;2023-05-07T04:48:30;5.72;;;2.95;;
30743;SDS011;17486;46.738;7.622;2023-05-07T04:50:55;4.97;;;3.05;;
30743;SDS011;17486;46.738;7.622;2023-05-07T04:53:21;5.72;;;2.47;;
30743;SDS011;17486;46.738;7.622;2023-05-07T04:55:46;3.25;;;2.65;;
30743;SDS011;17486;46.738;7.622;2023-05-07T04:58:12;4.47;;;2.55;;
30743;SDS011;17486;46.738;7.622;2023-05-07T05:00:38;4.68;;;2.80;;
30743;SDS011;17486;46.738;7.622;2023-05-07T05:03:04;3.85;;;3.08;;
30743;SDS011;17486;46.738;7.622;2023-05-07T05:05:30;4.22;;;3.70;;
30743;SDS011;17486;46.738;7.622;2023-05-07T05:07:55;5.50;;;3.25;;
30743;SDS011;17486;46.738;7.622;2023-05-07T05:10:21;3.47;;;3.17;;
30743;SDS011;17486;46.738;7.622;2023-05-07T05:12:47;3.47;;;3.17;;
30743;SDS011;17486;46.738;7.622;2023-05-07T05:15:12;3.42;;;2.70;;
30743;SDS011;17486;46.738;7.622;2023-05-07T05:17:38;5.75;;;3.20;;
30743;SDS011;17486;46.738;7.622;2023-05-07T05:20:04;4.35;;;3.08;;
30743;SDS011;17486;46.738;7.622;2023-05-07T05:22:30;5.40;;;3.45;;
30743;SDS011;17486;46.738;7.622;2023-05-07T05:24:56;4.03;;;3.60;;
30743;SDS011;17486;46.738;7.622;2023-05-07T05:27:22;7.32;;;5.70;;
30743;SDS011;17486;46.738;7.622;2023-05-07T05:29:48;8.10;;;5.22;;
30743;SDS011;17486;46.738;7.622;2023-05-07T05:32:13;8.45;;;4.90;;
30743;SDS011;17486;46.738;7.622;2023-05-07T05:34:38;5.72;;;3.88;;
30743;SDS011;17486;46.738;7.622;2023-05-07T05:37:04;6.72;;;3.53;;
30743;SDS011;17486;46.738;7.622;2023-05-07T05:39:29;6.40;;;3.83;;
30743;SDS011;17486;46.738;7.622;2023-05-07T05:41:54;3.70;;;3.10;;
30743;SDS011;17486;46.738;7.622;2023-05-07T05:44:20;3.85;;;3.25;;
30743;SDS011;17486;46.738;7.622;2023-05-07T05:46:45;3.97;;;2.83;;
30743;SDS011;17486;46.738;7.622;2023-05-07T05:49:11;4.63;;;2.92;;
30743;SDS011;17486;46.738;7.622;2023-05-07T05:51:36;3.25;;;2.88;;
30743;SDS011;17486;46.738;7.622;2023-05-07T05:54:01;4.35;;;2.88;;
30743;SDS011;17486;46.738;7.622;2023-05-07T05:56:27;3.45;;;2.83;;
30743;SDS011;17486;46.738;7.622;2023-05-07T05:58:52;4.72;;;2.95;;
30743;SDS011;17486;46.738;7.622;2023-05-07T06:01:18;5.50;;;3.05;;
30743;SDS011;17486;46.738;7.622;2023-05-07T06:03:44;3.83;;;2.83;;
30743;SDS011;17486;46.738;7.622;2023-05-07T06:06:09;4.72;;;2.92;;
30743;SDS011;17486;46.738;7.622;2023-05-07T06:08:35;5.25;;;2.40;;
30743;SDS011;17486;46.738;7.622;2023-05-07T06:11:01;4.35;;;2.22;;
30743;SDS011;17486;46.738;7.622;2023-05-07T06:13:26;4.13;;;2.33;;
30743;SDS011;17486;46.738;7.622;2023-05-07T06:15:52;4.03;;;2.35;;
30743;SDS011;17486;46.738;7.622;2023-05-07T06:18:17;3.85;;;2.08;;
30743;SDS011;17486;46.738;7.622;2023-05-07T06:20:42;3.50;;;2.58;;
30743;SDS011;17486;46.738;7.622;2023-05-07T06:23:08;4.65;;;2.60;;
30743;SDS011;17486;46.738;7.622;2023-05-07T06:25:33;2.30;;;2.10;;
30743;SDS011;17486;46.738;7.622;2023-05-07T06:27:58;7.03;;;2.53;;
30743;SDS011;17486;46.738;7.622;2023-05-07T06:30:24;4.55;;;2.40;;
30743;SDS011;17486;46.738;7.622;2023-05-07T06:32:49;2.47;;;2.28;;
30743;SDS011;17486;46.738;7.622;2023-05-07T06:35:14;2.95;;;2.40;;
30743;SDS011;17486;46.738;7.622;2023-05-07T06:37:41;4.13;;;2.15;;
30743;SDS011;17486;46.738;7.622;2023-05-07T06:40:08;2.75;;;2.38;;
30743;SDS011;17486;46.738;7.622;2023-05-07T06:42:35;2.88;;;2.05;;
30743;SDS011;17486;46.738;7.622;2023-05-07T06:45:01;4.13;;;2.08;;
30743;SDS011;17486;46.738;7.622;2023-05-07T06:47:27;4.00;;;2.15;;
30743;SDS011;17486;46.738;7.622;2023-05-07T06:49:52;3.95;;;2.10;;
30743;SDS011;17486;46.738;7.622;2023-05-07T06:52:18;4.40;;;2.42;;
30743;SDS011;17486;46.738;7.622;2023-05-07T06:54:43;3.63;;;2.10;;
30743;SDS011;17486;46.738;7.622;2023-05-07T06:57:09;3.45;;;2.33;;
30743;SDS011;17486;46.738;7.622;2023-05-07T06:59:34;6.03;;;2.47;;
30743;SDS011;17486;46.738;7.622;2023-05-07T07:01:59;5.05;;;2.85;;
30743;SDS011;17486;46.738;7.622;2023-05-07T07:04:25;7.80;;;2.38;;
30743;SDS011;17486;46.738;7.622;2023-05-07T07:06:51;2.40;;;2.20;;
30743;SDS011;17486;46.738;7.622;2023-05-07T07:09:17;2.83;;;2.25;;
30743;SDS011;17486;46.738;7.622;2023-05-07T07:11:43;3.58;;;2.05;;
30743;SDS011;17486;46.738;7.622;2023-05-07T07:14:08;2.28;;;2.08;;
30743;SDS011;17486;46.738;7.622;2023-05-07T07:16:34;4.57;;;2.65;;
30743;SDS011;17486;46.738;7.622;2023-05-07T07:18:59;5.07;;;2.53;;
30743;SDS011;17486;46.738;7.622;2023-05-07T07:21:25;5.93;;;2.60;;
30743;SDS011;17486;46.738;7.622;2023-05-07T07:23:50;2.67;;;2.40;;
30743;SDS011;17486;46.738;7.622;2023-05-07T07:26:15;4.68;;;2.55;;
30743;SDS011;17486;46.738;7.622;2023-05-07T07:28:47;4.53;;;2.33;;
30743;SDS011;17486;46.738;7.622;2023-05-07T07:31:12;3.55;;;2.80;;
30743;SDS011;17486;46.738;7.622;2023-05-07T07:33:38;3.47;;;2.47;;
30743;SDS011;17486;46.738;7.622;2023-05-07T07:36:05;5.53;;;2.13;;
30743;SDS011;17486;46.738;7.622;2023-05-07T07:38:31;2.30;;;2.03;;
30743;SDS011;17486;46.738;7.622;2023-05-07T07:40:56;3.60;;;2.25;;
30743;SDS011;17486;46.738;7.622;2023-05-07T07:43:22;2.75;;;2.13;;
30743;SDS011;17486;46.738;7.622;2023-05-07T07:45:47;4.22;;;2.70;;
30743;SDS011;17486;46.738;7.622;2023-05-07T07:48:12;3.38;;;2.40;;
30743;SDS011;17486;46.738;7.622;2023-05-07T07:50:38;3.67;;;2.50;;
30743;SDS011;17486;46.738;7.622;2023-05-07T07:53:03;3.88;;;2.50;;
30743;SDS011;17486;46.738;7.622;2023-05-07T07:55:29;6.82;;;2.80;;
30743;SDS011;17486;46.738;7.622;2023-05-07T07:57:56;3.22;;;2.70;;
30743;SDS011;17486;46.738;7.622;2023-05-07T08:00:21;2.55;;;2.33;;
30743;SDS011;17486;46.738;7.622;2023-05-07T08:02:47;3.47;;;2.90;;
30743;SDS011;17486;46.738;7.622;2023-05-07T08:05:12;6.50;;;3.28;;
30743;SDS011;17486;46.738;7.622;2023-05-07T08:07:37;2.92;;;2.63;;
30743;SDS011;17486;46.738;7.622;2023-05-07T08:10:03;6.22;;;3.25;;
30743;SDS011;17486;46.738;7.622;2023-05-07T08:12:29;4.07;;;3.10;;
30743;SDS011;17486;46.738;7.622;2023-05-07T08:14:54;6.93;;;3.92;;
30743;SDS011;17486;46.738;7.622;2023-05-07T08:17:20;8.57;;;3.60;;
30743;SDS011;17486;46.738;7.622;2023-05-07T08:19:47;6.82;;;3.03;;
30743;SDS011;17486;46.738;7.622;2023-05-07T08:22:12;3.20;;;2.80;;
30743;SDS011;17486;46.738;7.622;2023-05-07T08:24:38;4.05;;;2.97;;
30743;SDS011;17486;46.738;7.622;2023-05-07T08:27:04;5.30;;;2.72;;
30743;SDS011;17486;46.738;7.622;2023-05-07T08:29:29;3.45;;;2.92;;
30743;SDS011;17486;46.738;7.622;2023-05-07T08:31:55;2.75;;;2.50;;
30743;SDS011;17486;46.738;7.622;2023-05-07T08:34:21;3.55;;;2.65;;
30743;SDS011;17486;46.738;7.622;2023-05-07T08:36:47;4.43;;;3.10;;
30743;SDS011;17486;46.738;7.622;2023-05-07T08:39:13;4.05;;;2.83;;
30743;SDS011;17486;46.738;7.622;2023-05-07T08:41:40;3.67;;;2.67;;
30743;SDS011;17486;46.738;7.622;2023-05-07T08:44:11;4.60;;;2.80;;
30743;SDS011;17486;46.738;7.622;2023-05-07T08:46:39;4.22;;;2.90;;
30743;SDS011;17486;46.738;7.622;2023-05-07T08:49:04;5.35;;;2.85;;
30743;SDS011;17486;46.738;7.622;2023-05-07T08:51:30;4.95;;;2.70;;
30743;SDS011;17486;46.738;7.622;2023-05-07T08:53:56;4.28;;;3.15;;
30743;SDS011;17486;46.738;7.622;2023-05-07T08:56:21;3.42;;;3.10;;
30743;SDS011;17486;46.738;7.622;2023-05-07T08:58:47;3.50;;;2.80;;
30743;SDS011;17486;46.738;7.622;2023-05-07T09:01:14;3.53;;;2.80;;
30743;SDS011;17486;46.738;7.622;2023-05-07T09:03:40;3.28;;;2.65;;
30743;SDS011;17486;46.738;7.622;2023-05-07T09:06:09;5.50;;;2.75;;
30743;SDS011;17486;46.738;7.622;2023-05-07T09:08:35;4.45;;;2.95;;
30743;SDS011;17486;46.738;7.622;2023-05-07T09:11:01;3.92;;;2.70;;
30743;SDS011;17486;46.738;7.622;2023-05-07T09:13:27;4.13;;;3.03;;
30743;SDS011;17486;46.738;7.622;2023-05-07T09:15:52;4.20;;;2.38;;
30743;SDS011;17486;46.738;7.622;2023-05-07T09:18:18;359.40;;;288.08;;
30743;SDS011;17486;46.738;7.622;2023-05-07T09:20:43;717.05;;;556.92;;
30743;SDS011;17486;46.738;7.622;2023-05-07T09:23:09;305.48;;;257.13;;
30743;SDS011;17486;46.738;7.622;2023-05-07T09:25:35;175.45;;;130.68;;
30743;SDS011;17486;46.738;7.622;2023-05-07T09:28:01;170.23;;;122.05;;
30743;SDS011;17486;46.738;7.622;2023-05-07T09:30:28;94.57;;;69.13;;
30743;SDS011;17486;46.738;7.622;2023-05-07T09:32:55;32.67;;;25.35;;
30743;SDS011;17486;46.738;7.622;2023-05-07T09:35:21;12.15;;;9.63;;
30743;SDS011;17486;46.738;7.622;2023-05-07T09:37:49;6.80;;;4.93;;
30743;SDS011;17486;46.738;7.622;2023-05-07T09:40:21;4.53;;;3.55;;
30743;SDS011;17486;46.738;7.622;2023-05-07T09:42:48;3.85;;;3.15;;
30743;SDS011;17486;46.738;7.622;2023-05-07T09:45:14;4.38;;;3.70;;
30743;SDS011;17486;46.738;7.622;2023-05-07T09:47:40;6.53;;;3.33;;
30743;SDS011;17486;46.738;7.622;2023-05-07T09:50:09;4.93;;;3.30;;
30743;SDS011;17486;46.738;7.622;2023-05-07T09:52:38;4.22;;;2.88;;
30743;SDS011;17486;46.738;7.622;2023-05-07T09:55:05;5.93;;;3.38;;
30743;SDS011;17486;46.738;7.622;2023-05-07T09:57:32;4.47;;;3.10;;
30743;SDS011;17486;46.738;7.622;2023-05-07T09:59:58;5.68;;;3.33;;
30743;SDS011;17486;46.738;7.622;2023-05-07T10:02:27;3.53;;;3.00;;
30743;SDS011;17486;46.738;7.622;2023-05-07T10:04:55;4.45;;;2.97;;
30743;SDS011;17486;46.738;7.622;2023-05-07T10:07:23;3.42;;;3.05;;
30743;SDS011;17486;46.738;7.622;2023-05-07T10:09:50;4.95;;;3.03;;
30743;SDS011;17486;46.738;7.622;2023-05-07T10:12:16;4.80;;;3.00;;
30743;SDS011;17486;46.738;7.622;2023-05-07T10:14:43;3.40;;;3.10;;
30743;SDS011;17486;46.738;7.622;2023-05-07T10:17:10;5.05;;;3.35;;
30743;SDS011;17486;46.738;7.622;2023-05-07T10:19:37;4.20;;;3.47;;
30743;SDS011;17486;46.738;7.622;2023-05-07T10:22:04;4.32;;;3.20;;
30743;SDS011;17486;46.738;7.622;2023-05-07T10:24:34;3.55;;;3.25;;
30743;SDS011;17486;46.738;7.622;2023-05-07T10:27:02;4.38;;;3.13;;
30743;SDS011;17486;46.738;7.622;2023-05-07T10:34:40;6.20;;;3.60;;
30743;SDS011;17486;46.738;7.622;2023-05-07T10:37:09;4.68;;;3.50;;
30743;SDS011;17486;46.738;7.622;2023-05-07T10:39:36;3.80;;;3.50;;
30743;SDS011;17486;46.738;7.622;2023-05-07T10:42:09;4.22;;;2.90;;
30743;SDS011;17486;46.738;7.622;2023-05-07T10:44:35;3.92;;;2.90;;
30743;SDS011;17486;46.738;7.622;2023-05-07T10:49:35;5.68;;;3.22;;
30743;SDS011;17486;46.738;7.622;2023-05-07T10:54:43;3.00;;;2.70;;
30743;SDS011;17486;46.738;7.622;2023-05-07T10:59:57;3.50;;;3.00;;
30743;SDS011;17486;46.738;7.622;2023-05-07T11:02:22;5.72;;;3.13;;
30743;SDS011;17486;46.738;7.622;2023-05-07T11:07:57;3.20;;;2.90;;
30743;SDS011;17486;46.738;7.622;2023-05-07T11:11:06;3.15;;;2.63;;
30743;SDS011;17486;46.738;7.622;2023-05-07T11:13:14;3.10;;;2.80;;
30743;SDS011;17486;46.738;7.622;2023-05-07T11:15:41;3.90;;;2.90;;
30743;SDS011;17486;46.738;7.622;2023-05-07T11:18:09;3.75;;;2.90;;
30743;SDS011;17486;46.738;7.622;2023-05-07T11:26:00;4.75;;;2.92;;
30743;SDS011;17486;46.738;7.622;2023-05-07T11:28:27;3.38;;;3.00;;
30743;SDS011;17486;46.738;7.622;2023-05-07T11:30:53;4.07;;;3.25;;
30743;SDS011;17486;46.738;7.622;2023-05-07T11:33:18;7.13;;;3.53;;
30743;SDS011;17486;46.738;7.622;2023-05-07T11:35:44;4.63;;;2.90;;
30743;SDS011;17486;46.738;7.622;2023-05-07T11:38:10;3.88;;;3.58;;
30743;SDS011;17486;46.738;7.622;2023-05-07T11:40:58;5.93;;;3.55;;
30743;SDS011;17486;46.738;7.622;2023-05-07T11:43:25;6.18;;;3.55;;
30743;SDS011;17486;46.738;7.622;2023-05-07T11:45:51;3.83;;;3.47;;
30743;SDS011;17486;46.738;7.622;2023-05-07T11:48:17;4.10;;;3.40;;
30743;SDS011;17486;46.738;7.622;2023-05-07T11:50:53;3.90;;;3.50;;
30743;SDS011;17486;46.738;7.622;2023-05-07T11:53:25;3.75;;;3.45;;
30743;SDS011;17486;46.738;7.622;2023-05-07T11:55:57;4.68;;;3.20;;
30743;SDS011;17486;46.738;7.622;2023-05-07T11:58:23;5.60;;;3.88;;
30743;SDS011;17486;46.738;7.622;2023-05-07T12:00:50;5.20;;;2.95;;
30743;SDS011;17486;46.738;7.622;2023-05-07T12:03:16;4.20;;;3.25;;
30743;SDS011;17486;46.738;7.622;2023-05-07T12:05:43;4.00;;;3.03;;
30743;SDS011;17486;46.738;7.622;2023-05-07T12:08:15;3.90;;;3.30;;
30743;SDS011;17486;46.738;7.622;2023-05-07T12:10:41;4.97;;;3.25;;
30743;SDS011;17486;46.738;7.622;2023-05-07T12:13:20;4.25;;;3.50;;
30743;SDS011;17486;46.738;7.622;2023-05-07T12:15:50;3.88;;;3.15;;
30743;SDS011;17486;46.738;7.622;2023-05-07T12:18:16;5.32;;;3.28;;
30743;SDS011;17486;46.738;7.622;2023-05-07T12:20:42;4.30;;;3.05;;
30743;SDS011;17486;46.738;7.622;2023-05-07T12:23:08;5.50;;;2.63;;
30743;SDS011;17486;46.738;7.622;2023-05-07T12:25:40;3.38;;;2.78;;
30743;SDS011;17486;46.738;7.622;2023-05-07T12:28:13;3.28;;;2.97;;
30743;SDS011;17486;46.738;7.622;2023-05-07T12:30:42;2.67;;;2.28;;
30743;SDS011;17486;46.738;7.622;2023-05-07T12:33:12;3.47;;;3.17;;
30743;SDS011;17486;46.738;7.622;2023-05-07T12:35:41;3.22;;;2.45;;
30743;SDS011;17486;46.738;7.622;2023-05-07T12:38:14;2.88;;;2.60;;
30743;SDS011;17486;46.738;7.622;2023-05-07T12:40:45;5.07;;;2.50;;
30743;SDS011;17486;46.738;7.622;2023-05-07T12:43:19;2.67;;;2.47;;
30743;SDS011;17486;46.738;7.622;2023-05-07T12:45:46;3.75;;;2.83;;
30743;SDS011;17486;46.738;7.622;2023-05-07T12:48:12;3.78;;;2.42;;
30743;SDS011;17486;46.738;7.622;2023-05-07T12:50:38;3.70;;;3.08;;
30743;SDS011;17486;46.738;7.622;2023-05-07T12:53:04;3.53;;;2.63;;
30743;SDS011;17486;46.738;7.622;2023-05-07T12:55:31;4.32;;;2.75;;
30743;SDS011;17486;46.738;7.622;2023-05-07T12:58:00;4.50;;;2.80;;
30743;SDS011;17486;46.738;7.622;2023-05-07T13:00:36;4.40;;;2.95;;
30743;SDS011;17486;46.738;7.622;2023-05-07T13:03:03;5.13;;;3.05;;
30743;SDS011;17486;46.738;7.622;2023-05-07T13:05:28;4.72;;;3.28;;
30743;SDS011;17486;46.738;7.622;2023-05-07T13:07:54;4.35;;;3.20;;
30743;SDS011;17486;46.738;7.622;2023-05-07T13:10:21;5.75;;;3.08;;
30743;SDS011;17486;46.738;7.622;2023-05-07T13:12:48;3.92;;;3.10;;
30743;SDS011;17486;46.738;7.622;2023-05-07T13:15:14;3.78;;;3.13;;
30743;SDS011;17486;46.738;7.622;2023-05-07T13:17:39;4.13;;;2.88;;
30743;SDS011;17486;46.738;7.622;2023-05-07T13:20:04;3.13;;;2.83;;
30743;SDS011;17486;46.738;7.622;2023-05-07T13:22:30;5.22;;;2.90;;
30743;SDS011;17486;46.738;7.622;2023-05-07T13:24:56;3.22;;;1.85;;
30743;SDS011;17486;46.738;7.622;2023-05-07T13:27:22;3.92;;;1.80;;
30743;SDS011;17486;46.738;7.622;2023-05-07T13:29:47;2.38;;;1.70;;
30743;SDS011;17486;46.738;7.622;2023-05-07T13:32:12;1.90;;;1.75;;
30743;SDS011;17486;46.738;7.622;2023-05-07T13:34:38;1.85;;;1.75;;
30743;SDS011;17486;46.738;7.622;2023-05-07T13:37:03;5.43;;;2.42;;
30743;SDS011;17486;46.738;7.622;2023-05-07T13:39:28;5.93;;;2.65;;
30743;SDS011;17486;46.738;7.622;2023-05-07T13:41:54;3.72;;;2.42;;
30743;SDS011;17486;46.738;7.622;2023-05-07T13:44:19;4.95;;;2.95;;
30743;SDS011;17486;46.738;7.622;2023-05-07T13:46:45;3.22;;;2.47;;
30743;SDS011;17486;46.738;7.622;2023-05-07T13:49:11;3.97;;;2.50;;
30743;SDS011;17486;46.738;7.622;2023-05-07T13:51:37;3.75;;;2.55;;
30743;SDS011;17486;46.738;7.622;2023-05-07T13:54:03;6.35;;;2.85;;
30743;SDS011;17486;46.738;7.622;2023-05-07T13:56:29;2.78;;;2.55;;
30743;SDS011;17486;46.738;7.622;2023-05-07T13:58:56;2.55;;;2.35;;
30743;SDS011;17486;46.738;7.622;2023-05-07T14:01:21;3.80;;;2.75;;
30743;SDS011;17486;46.738;7.622;2023-05-07T14:03:47;3.17;;;2.88;;
30743;SDS011;17486;46.738;7.622;2023-05-07T14:06:12;5.70;;;3.33;;
30743;SDS011;17486;46.738;7.622;2023-05-07T14:08:37;5.32;;;3.17;;
30743;SDS011;17486;46.738;7.622;2023-05-07T14:11:03;4.72;;;3.78;;
30743;SDS011;17486;46.738;7.622;2023-05-07T14:13:28;3.40;;;3.10;;
30743;SDS011;17486;46.738;7.622;2023-05-07T14:15:55;4.03;;;3.17;;
30743;SDS011;17486;46.738;7.622;2023-05-07T14:18:21;3.65;;;3.10;;
30743;SDS011;17486;46.738;7.622;2023-05-07T14:20:47;3.80;;;3.08;;
30743;SDS011;17486;46.738;7.622;2023-05-07T14:23:13;3.13;;;2.83;;
30743;SDS011;17486;46.738;7.622;2023-05-07T14:25:39;5.40;;;2.88;;
30743;SDS011;17486;46.738;7.622;2023-05-07T14:28:04;3.88;;;3.17;;
30743;SDS011;17486;46.738;7.622;2023-05-07T14:30:30;4.35;;;3.47;;
30743;SDS011;17486;46.738;7.622;2023-05-07T14:32:55;3.05;;;2.75;;
30743;SDS011;17486;46.738;7.622;2023-05-07T14:35:21;2.50;;;2.30;;
30743;SDS011;17486;46.738;7.622;2023-05-07T14:37:46;1.80;;;1.70;;
30743;SDS011;17486;46.738;7.622;2023-05-07T14:40:12;1.30;;;1.17;;
30743;SDS011;17486;46.738;7.622;2023-05-07T14:42:37;1.20;;;1.20;;
30743;SDS011;17486;46.738;7.622;2023-05-07T14:45:02;2.15;;;1.40;;
30743;SDS011;17486;46.738;7.622;2023-05-07T14:47:28;1.60;;;1.50;;
30743;SDS011;17486;46.738;7.622;2023-05-07T14:49:54;2.05;;;1.70;;
30743;SDS011;17486;46.738;7.622;2023-05-07T14:52:20;2.33;;;2.13;;
30743;SDS011;17486;46.738;7.622;2023-05-07T14:54:45;2.70;;;1.92;;
30743;SDS011;17486;46.738;7.622;2023-05-07T14:57:13;1.92;;;1.70;;
30743;SDS011;17486;46.738;7.622;2023-05-07T14:59:43;1.88;;;1.67;;
30743;SDS011;17486;46.738;7.622;2023-05-07T15:02:09;2.92;;;1.95;;
30743;SDS011;17486;46.738;7.622;2023-05-07T15:04:36;1.60;;;1.45;;